MAC725 GMMW-GMTT
Flight info
| Callsign | MAC725 |
|---|---|
| Flight time | 0h 26m |
| Altitude | 20000 |
| Route | ARI DCT NARMI |
| Aircraft | A320/M-SDE3FGHIRWY/LB1 |
Departure
| Time | 2026-04-22 13:09 |
|---|---|
| Airport | Nador Al Aaroui International Airport (GMMW) |
Arrival
| Time | 2026-04-22 13:35 |
|---|---|
| Airport | Tangier Ibn Battuta Airport (GMTT) |
| Time | Latitude | Longitude | Altitude | Speed | Heading |
|---|---|---|---|---|---|
| 2026-04-22 12:55 | 34.99260 | -3.02704 | 600 ft | 0 kts | 124° |
| 2026-04-22 13:05 | 34.99260 | -3.02703 | 599 ft | 1 kts | 124° |
| 2026-04-22 13:05 | 34.99234 | -3.02661 | 599 ft | 11 kts | 127° |
| 2026-04-22 13:06 | 34.99235 | -3.02541 | 597 ft | 19 kts | 73° |
| 2026-04-22 13:06 | 34.99266 | -3.02353 | 600 ft | 23 kts | 77° |
| 2026-04-22 13:06 | 34.99238 | -3.02213 | 603 ft | 17 kts | 165° |
| 2026-04-22 13:06 | 34.99156 | -3.02186 | 607 ft | 5 kts | 167° |
| 2026-04-22 13:07 | 34.99124 | -3.02177 | 616 ft | 4 kts | 168° |
| 2026-04-22 13:07 | 34.99079 | -3.02167 | 605 ft | 7 kts | 169° |
| 2026-04-22 13:07 | 34.99037 | -3.02167 | 605 ft | 6 kts | 201° |
| 2026-04-22 13:07 | 34.99026 | -3.02208 | 603 ft | 6 kts | 260° |
| 2026-04-22 13:08 | 34.99024 | -3.02220 | 603 ft | 1 kts | 259° |
| 2026-04-22 13:08 | 34.99021 | -3.02237 | 602 ft | 3 kts | 258° |
| 2026-04-22 13:08 | 34.99016 | -3.02270 | 602 ft | 16 kts | 258° |
| 2026-04-22 13:08 | 34.98924 | -3.02811 | 601 ft | 111 kts | 258° |
| 2026-04-22 13:09 | 34.98722 | -3.04045 | 682 ft | 177 kts | 262° |
| 2026-04-22 13:09 | 34.98491 | -3.05542 | 1600 ft | 176 kts | 262° |
| 2026-04-22 13:09 | 34.98263 | -3.06989 | 2629 ft | 178 kts | 265° |
| 2026-04-22 13:09 | 34.98327 | -3.08594 | 3036 ft | 204 kts | 281° |
| 2026-04-22 13:10 | 34.98683 | -3.10416 | 3328 ft | 234 kts | 284° |
| 2026-04-22 13:10 | 34.99146 | -3.12359 | 4049 ft | 245 kts | 287° |
| 2026-04-22 13:10 | 34.99721 | -3.14334 | 4856 ft | 253 kts | 288° |
| 2026-04-22 13:10 | 35.00338 | -3.16393 | 5749 ft | 258 kts | 288° |
| 2026-04-22 13:11 | 35.00949 | -3.18464 | 6662 ft | 260 kts | 288° |
| 2026-04-22 13:11 | 35.01555 | -3.20559 | 7300 ft | 273 kts | 287° |
| 2026-04-22 13:11 | 35.02193 | -3.22812 | 8075 ft | 280 kts | 287° |
| 2026-04-22 13:11 | 35.02824 | -3.25055 | 8803 ft | 285 kts | 287° |
| 2026-04-22 13:12 | 35.03472 | -3.27367 | 9666 ft | 289 kts | 286° |
| 2026-04-22 13:12 | 35.04134 | -3.29725 | 10294 ft | 303 kts | 286° |
| 2026-04-22 13:12 | 35.04839 | -3.32251 | 10578 ft | 327 kts | 287° |
| 2026-04-22 13:12 | 35.05601 | -3.34976 | 10818 ft | 350 kts | 287° |
| 2026-04-22 13:13 | 35.06414 | -3.37878 | 10982 ft | 374 kts | 287° |
| 2026-04-22 13:13 | 35.07281 | -3.40968 | 11254 ft | 391 kts | 287° |
| 2026-04-22 13:13 | 35.08155 | -3.44079 | 11834 ft | 396 kts | 287° |
| 2026-04-22 13:13 | 35.09033 | -3.47203 | 12510 ft | 399 kts | 287° |
| 2026-04-22 13:14 | 35.09936 | -3.50422 | 13189 ft | 401 kts | 287° |
| 2026-04-22 13:14 | 35.10843 | -3.53661 | 13859 ft | 404 kts | 287° |
| 2026-04-22 13:14 | 35.11750 | -3.56912 | 14450 ft | 406 kts | 287° |
| 2026-04-22 13:14 | 35.12665 | -3.60193 | 15032 ft | 409 kts | 287° |
| 2026-04-22 13:15 | 35.13585 | -3.63494 | 15573 ft | 411 kts | 287° |
| 2026-04-22 13:15 | 35.14509 | -3.66816 | 16148 ft | 414 kts | 287° |
| 2026-04-22 13:15 | 35.15438 | -3.70155 | 16701 ft | 416 kts | 287° |
| 2026-04-22 13:15 | 35.16368 | -3.73502 | 17247 ft | 418 kts | 287° |
| 2026-04-22 13:16 | 35.17302 | -3.76882 | 17777 ft | 421 kts | 287° |
| 2026-04-22 13:16 | 35.18228 | -3.80238 | 18304 ft | 423 kts | 287° |
| 2026-04-22 13:16 | 35.19182 | -3.83705 | 18784 ft | 425 kts | 287° |
| 2026-04-22 13:16 | 35.20110 | -3.87083 | 19236 ft | 427 kts | 287° |
| 2026-04-22 13:17 | 35.21060 | -3.90534 | 19674 ft | 429 kts | 287° |
| 2026-04-22 13:17 | 35.22014 | -3.93991 | 19935 ft | 431 kts | 288° |
| 2026-04-22 13:17 | 35.22976 | -3.97481 | 19995 ft | 436 kts | 288° |
| 2026-04-22 13:17 | 35.23949 | -4.01010 | 20002 ft | 438 kts | 288° |
| 2026-04-22 13:18 | 35.24923 | -4.04549 | 20010 ft | 439 kts | 287° |
| 2026-04-22 13:18 | 35.25892 | -4.08081 | 20014 ft | 439 kts | 287° |
| 2026-04-22 13:18 | 35.26863 | -4.11627 | 20009 ft | 439 kts | 287° |
| 2026-04-22 13:18 | 35.27829 | -4.15174 | 20003 ft | 439 kts | 287° |
| 2026-04-22 13:19 | 35.28790 | -4.18723 | 20025 ft | 439 kts | 287° |
| 2026-04-22 13:19 | 35.29748 | -4.22261 | 20028 ft | 439 kts | 287° |
| 2026-04-22 13:19 | 35.30712 | -4.25811 | 20016 ft | 439 kts | 287° |
| 2026-04-22 13:19 | 35.31676 | -4.29360 | 20009 ft | 439 kts | 287° |
| 2026-04-22 13:20 | 35.32635 | -4.32898 | 20007 ft | 439 kts | 287° |
| 2026-04-22 13:20 | 35.33599 | -4.36448 | 20021 ft | 439 kts | 287° |
| 2026-04-22 13:20 | 35.34549 | -4.39952 | 20016 ft | 439 kts | 287° |
| 2026-04-22 13:20 | 35.35508 | -4.43491 | 20015 ft | 439 kts | 287° |
| 2026-04-22 13:21 | 35.36469 | -4.47043 | 20008 ft | 439 kts | 287° |
| 2026-04-22 13:21 | 35.37439 | -4.50632 | 20013 ft | 439 kts | 287° |
| 2026-04-22 13:21 | 35.38398 | -4.54186 | 20010 ft | 439 kts | 287° |
| 2026-04-22 13:21 | 35.39342 | -4.57694 | 20015 ft | 439 kts | 287° |
| 2026-04-22 13:22 | 35.40304 | -4.61288 | 20012 ft | 439 kts | 287° |
| 2026-04-22 13:22 | 35.41256 | -4.64848 | 20012 ft | 439 kts | 287° |
| 2026-04-22 13:22 | 35.42189 | -4.68336 | 20005 ft | 433 kts | 287° |
| 2026-04-22 13:22 | 35.43136 | -4.71873 | 20008 ft | 431 kts | 287° |
| 2026-04-22 13:23 | 35.44058 | -4.75322 | 20005 ft | 431 kts | 287° |
| 2026-04-22 13:23 | 35.44993 | -4.78814 | 20008 ft | 431 kts | 287° |
| 2026-04-22 13:23 | 35.45922 | -4.82296 | 20008 ft | 430 kts | 287° |
| 2026-04-22 13:23 | 35.46851 | -4.85791 | 20012 ft | 430 kts | 287° |
| 2026-04-22 13:24 | 35.47775 | -4.89275 | 20001 ft | 430 kts | 287° |
| 2026-04-22 13:24 | 35.48702 | -4.92771 | 19997 ft | 430 kts | 287° |
| 2026-04-22 13:24 | 35.49632 | -4.96267 | 20009 ft | 430 kts | 287° |
| 2026-04-22 13:24 | 35.50557 | -4.99752 | 19996 ft | 430 kts | 286° |
| 2026-04-22 13:25 | 35.51478 | -5.03252 | 19991 ft | 430 kts | 286° |
| 2026-04-22 13:25 | 35.52380 | -5.06694 | 19992 ft | 428 kts | 286° |
| 2026-04-22 13:25 | 35.53269 | -5.10079 | 19894 ft | 400 kts | 286° |
| 2026-04-22 13:25 | 35.54115 | -5.13261 | 18922 ft | 391 kts | 287° |
| 2026-04-22 13:26 | 35.55017 | -5.16377 | 17990 ft | 389 kts | 288° |
| 2026-04-22 13:26 | 35.55985 | -5.19507 | 17093 ft | 394 kts | 289° |
| 2026-04-22 13:26 | 35.56985 | -5.22633 | 16400 ft | 392 kts | 289° |
| 2026-04-22 13:26 | 35.57985 | -5.25736 | 15775 ft | 389 kts | 288° |
| 2026-04-22 13:27 | 35.58972 | -5.28816 | 15165 ft | 386 kts | 288° |
| 2026-04-22 13:27 | 35.59616 | -5.30846 | 14774 ft | 384 kts | 288° |
| 2026-04-22 13:27 | 35.60572 | -5.33894 | 14202 ft | 381 kts | 287° |
| 2026-04-22 13:27 | 35.61516 | -5.36930 | 13590 ft | 379 kts | 287° |
| 2026-04-22 13:28 | 35.62452 | -5.39953 | 12965 ft | 377 kts | 287° |
| 2026-04-22 13:28 | 35.63382 | -5.42957 | 12364 ft | 374 kts | 287° |
| 2026-04-22 13:28 | 35.64301 | -5.45928 | 11796 ft | 370 kts | 287° |
| 2026-04-22 13:28 | 35.65210 | -5.48875 | 11207 ft | 367 kts | 287° |
| 2026-04-22 13:29 | 35.66108 | -5.51787 | 10603 ft | 361 kts | 287° |
| 2026-04-22 13:29 | 35.67218 | -5.54514 | 9718 ft | 357 kts | 304° |
| 2026-04-22 13:29 | 35.68998 | -5.56497 | 9499 ft | 334 kts | 319° |
| 2026-04-22 13:29 | 35.70819 | -5.58092 | 9324 ft | 309 kts | 320° |
| 2026-04-22 13:30 | 35.72430 | -5.59723 | 8669 ft | 293 kts | 305° |
| 2026-04-22 13:30 | 35.73381 | -5.61857 | 7483 ft | 281 kts | 281° |
| 2026-04-22 13:30 | 35.73441 | -5.64199 | 6353 ft | 273 kts | 255° |
| 2026-04-22 13:30 | 35.72737 | -5.66345 | 5164 ft | 270 kts | 241° |
| 2026-04-22 13:31 | 35.71861 | -5.68377 | 4118 ft | 265 kts | 240° |
| 2026-04-22 13:31 | 35.71213 | -5.70424 | 3405 ft | 252 kts | 263° |
| 2026-04-22 13:31 | 35.71313 | -5.72489 | 2972 ft | 232 kts | 275° |
| 2026-04-22 13:31 | 35.71494 | -5.74371 | 2669 ft | 214 kts | 276° |
| 2026-04-22 13:32 | 35.71661 | -5.76154 | 2380 ft | 206 kts | 276° |
| 2026-04-22 13:32 | 35.71823 | -5.77869 | 2110 ft | 198 kts | 276° |
| 2026-04-22 13:32 | 35.71977 | -5.79498 | 1859 ft | 191 kts | 277° |
| 2026-04-22 13:32 | 35.72126 | -5.81084 | 1628 ft | 180 kts | 278° |
| 2026-04-22 13:33 | 35.72267 | -5.82573 | 1382 ft | 170 kts | 279° |
| 2026-04-22 13:33 | 35.72397 | -5.83960 | 1147 ft | 156 kts | 278° |
| 2026-04-22 13:33 | 35.72516 | -5.85222 | 959 ft | 144 kts | 278° |
| 2026-04-22 13:33 | 35.72629 | -5.86424 | 789 ft | 140 kts | 278° |
| 2026-04-22 13:34 | 35.72741 | -5.87611 | 610 ft | 139 kts | 278° |
| 2026-04-22 13:34 | 35.72854 | -5.88784 | 413 ft | 137 kts | 279° |
| 2026-04-22 13:34 | 35.72960 | -5.89930 | 220 ft | 133 kts | 278° |
| 2026-04-22 13:34 | 35.73063 | -5.91033 | 66 ft | 125 kts | 278° |
| 2026-04-22 13:35 | 35.73147 | -5.91931 | 56 ft | 82 kts | 277° |
| 2026-04-22 13:35 | 35.73193 | -5.92423 | 61 ft | 38 kts | 277° |
| 2026-04-22 13:35 | 35.73125 | -5.92609 | 55 ft | 21 kts | 181° |
| 2026-04-22 13:35 | 35.73022 | -5.92527 | 57 ft | 18 kts | 98° |
| 2026-04-22 13:36 | 35.73007 | -5.92378 | 59 ft | 17 kts | 97° |
| 2026-04-22 13:36 | 35.72994 | -5.92241 | 57 ft | 17 kts | 96° |
| 2026-04-22 13:36 | 35.72979 | -5.92075 | 57 ft | 20 kts | 96° |
| 2026-04-22 13:36 | 35.72964 | -5.91912 | 59 ft | 18 kts | 96° |
| 2026-04-22 13:37 | 35.72948 | -5.91765 | 60 ft | 16 kts | 111° |
| 2026-04-22 13:37 | 35.72864 | -5.91718 | 60 ft | 13 kts | 174° |
| 2026-04-22 13:37 | 35.72776 | -5.91710 | 60 ft | 12 kts | 176° |
| 2026-04-22 13:37 | 35.72698 | -5.91704 | 60 ft | 11 kts | 176° |
| 2026-04-22 13:38 | 35.72643 | -5.91684 | 52 ft | 7 kts | 105° |
| 2026-04-22 13:38 | 35.72645 | -5.91613 | 54 ft | 0 kts | 86° |
| 2026-04-22 13:38 | 35.72645 | -5.91607 | 56 ft | 0 kts | 86° |